UMBB

Details ICAO UMBB (BQT)
Name Brest
Region Belarus and Russia (Kaliningrad Oblast)
Timezone Europe/Minsk (UTC+3.0)
Plans Departing 23
Arriving 25
Stats Elevation 468 ft / 143 m (AMSL)
Location 52.108283° 23.896352°
Runways 1
Magnetic Variation 6.585° E
Sunrise 2018-05-22 02:21:58 UTC / 2018-05-22 05:21:58 Local
Sunset 2018-05-22 18:23:02 UTC / 2018-05-22 21:23:02 Local
Advertisement - Login to hide

Runways

ID Width Length Bearing (true) Bearing (mag) Surface Threshold Offset Overrun Length
11 138 ft / 42 m 8,589 ft / 2,618 m 114.01° 107.42° Asphalt 0 ft / 0 m 0 ft / 0 m
29 138 ft / 42 m 8,589 ft / 2,618 m 294.04° 287.45° Asphalt 0 ft / 0 m 0 ft / 0 m

Approach Navaids

Runway Type Ident Frequency Range Bearing (true) Bearing (mag) Slope Elevation
29 Localiser IBY 110.30 MHz 18 nm / 33 km 294.05° 287.46° - 443 ft / 135 m (AMSL)

Map

Weather


0- 5 10 15 20 25 30 35+ Temperature / ° C

Clouds and Precipitation
Forecast for 2018-05-22 12:00 UTC. Updated 3 hours ago

Ground ~20,000 ft ~40,000 ft Winds

METAR

UMBB 221300Z 09004MPS 9999 BKN036CB 19/09 Q1019 NOSIG

TAF

Not found

Frequencies

Approach 127.70 MHz APP
Warning: Do not use this data for real-world aviation or navigation. No guarantee of current accuracy is given.